sensor_id;sensor_type;location;lat;lon;timestamp;temperature;humidity
56300;DHT22;42209;6.376;-10.782;2022-10-31T00:01:37;23.00;50.20
56300;DHT22;42209;6.376;-10.782;2022-10-31T00:04:05;22.80;48.90
56300;DHT22;42209;6.376;-10.782;2022-10-31T00:06:33;22.70;48.10
56300;DHT22;42209;6.376;-10.782;2022-10-31T00:09:03;22.70;47.70
56300;DHT22;42209;6.376;-10.782;2022-10-31T00:11:32;22.80;52.00
56300;DHT22;42209;6.376;-10.782;2022-10-31T00:14:01;23.00;55.20
56300;DHT22;42209;6.376;-10.782;2022-10-31T00:16:29;23.10;57.00
56300;DHT22;42209;6.376;-10.782;2022-10-31T00:19:00;23.20;58.50
56300;DHT22;42209;6.376;-10.782;2022-10-31T00:21:30;23.30;59.70
56300;DHT22;42209;6.376;-10.782;2022-10-31T00:23:59;23.40;60.50
56300;DHT22;42209;6.376;-10.782;2022-10-31T00:26:31;23.50;61.00
56300;DHT22;42209;6.376;-10.782;2022-10-31T00:29:00;23.60;61.20
56300;DHT22;42209;6.376;-10.782;2022-10-31T00:31:28;23.60;56.80
56300;DHT22;42209;6.376;-10.782;2022-10-31T00:33:57;23.40;53.60
56300;DHT22;42209;6.376;-10.782;2022-10-31T00:36:26;23.10;52.30
56300;DHT22;42209;6.376;-10.782;2022-10-31T00:38:55;22.90;51.00
56300;DHT22;42209;6.376;-10.782;2022-10-31T00:41:23;22.70;49.80
56300;DHT22;42209;6.376;-10.782;2022-10-31T00:43:52;22.70;48.90
56300;DHT22;42209;6.376;-10.782;2022-10-31T00:46:20;22.70;51.60
56300;DHT22;42209;6.376;-10.782;2022-10-31T00:48:50;22.90;55.20
56300;DHT22;42209;6.376;-10.782;2022-10-31T00:51:18;23.10;57.30
56300;DHT22;42209;6.376;-10.782;2022-10-31T00:53:46;23.20;59.00
56300;DHT22;42209;6.376;-10.782;2022-10-31T00:56:15;23.30;60.10
56300;DHT22;42209;6.376;-10.782;2022-10-31T00:58:43;23.40;61.10
56300;DHT22;42209;6.376;-10.782;2022-10-31T01:01:11;23.40;61.70
56300;DHT22;42209;6.376;-10.782;2022-10-31T01:03:39;23.60;61.90
56300;DHT22;42209;6.376;-10.782;2022-10-31T01:06:12;23.60;60.00
56300;DHT22;42209;6.376;-10.782;2022-10-31T01:08:41;23.50;55.10
56300;DHT22;42209;6.376;-10.782;2022-10-31T01:11:15;23.20;53.40
56300;DHT22;42209;6.376;-10.782;2022-10-31T01:13:44;23.00;52.10
56300;DHT22;42209;6.376;-10.782;2022-10-31T01:16:17;22.80;50.60
56300;DHT22;42209;6.376;-10.782;2022-10-31T01:18:46;22.70;49.30
56300;DHT22;42209;6.376;-10.782;2022-10-31T01:21:16;22.70;50.50
56300;DHT22;42209;6.376;-10.782;2022-10-31T01:23:44;22.90;54.90
56300;DHT22;42209;6.376;-10.782;2022-10-31T01:26:18;23.10;57.60
56300;DHT22;42209;6.376;-10.782;2022-10-31T01:28:49;23.20;59.10
56300;DHT22;42209;6.376;-10.782;2022-10-31T01:31:19;23.30;60.40
56300;DHT22;42209;6.376;-10.782;2022-10-31T01:33:48;23.40;61.40
56300;DHT22;42209;6.376;-10.782;2022-10-31T01:36:18;23.40;61.90
56300;DHT22;42209;6.376;-10.782;2022-10-31T01:38:51;23.60;62.30
56300;DHT22;42209;6.376;-10.782;2022-10-31T01:41:22;23.60;61.20
56300;DHT22;42209;6.376;-10.782;2022-10-31T01:43:57;23.50;55.90
56300;DHT22;42209;6.376;-10.782;2022-10-31T01:46:45;23.20;53.90
56300;DHT22;42209;6.376;-10.782;2022-10-31T01:49:37;22.90;52.30
56300;DHT22;42209;6.376;-10.782;2022-10-31T01:55:01;22.80;54.40
56300;DHT22;42209;6.376;-10.782;2022-10-31T01:57:32;23.00;57.80
56300;DHT22;42209;6.376;-10.782;2022-10-31T02:00:06;23.20;59.80
56300;DHT22;42209;6.376;-10.782;2022-10-31T02:02:41;23.30;61.20
56300;DHT22;42209;6.376;-10.782;2022-10-31T02:05:14;23.40;62.20
56300;DHT22;42209;6.376;-10.782;2022-10-31T02:07:51;23.50;63.30
56300;DHT22;42209;6.376;-10.782;2022-10-31T02:10:27;23.60;63.70
56300;DHT22;42209;6.376;-10.782;2022-10-31T02:12:58;23.70;64.00
56300;DHT22;42209;6.376;-10.782;2022-10-31T02:15:29;23.70;60.90
56300;DHT22;42209;6.376;-10.782;2022-10-31T02:17:58;23.50;56.90
56300;DHT22;42209;6.376;-10.782;2022-10-31T02:20:28;23.30;54.60
56300;DHT22;42209;6.376;-10.782;2022-10-31T02:32:11;22.60;48.90
56300;DHT22;42209;6.376;-10.782;2022-10-31T02:37:21;22.50;47.40
56300;DHT22;42209;6.376;-10.782;2022-10-31T02:39:56;22.60;49.90
56300;DHT22;42209;6.376;-10.782;2022-10-31T02:45:49;23.00;56.20
56300;DHT22;42209;6.376;-10.782;2022-10-31T02:48:26;23.10;58.10
56300;DHT22;42209;6.376;-10.782;2022-10-31T02:51:03;23.20;59.40
56300;DHT22;42209;6.376;-10.782;2022-10-31T02:53:36;23.30;60.80
56300;DHT22;42209;6.376;-10.782;2022-10-31T02:56:08;23.40;60.70
56300;DHT22;42209;6.376;-10.782;2022-10-31T02:58:49;23.50;60.90
56300;DHT22;42209;6.376;-10.782;2022-10-31T03:10:40;22.80;51.50
56300;DHT22;42209;6.376;-10.782;2022-10-31T03:16:23;22.70;53.30
56300;DHT22;42209;6.376;-10.782;2022-10-31T03:21:33;23.10;59.20
56300;DHT22;42209;6.376;-10.782;2022-10-31T03:24:05;23.20;60.60
56300;DHT22;42209;6.376;-10.782;2022-10-31T03:26:41;23.30;62.40
56300;DHT22;42209;6.376;-10.782;2022-10-31T03:29:13;23.40;62.80
56300;DHT22;42209;6.376;-10.782;2022-10-31T03:31:49;23.40;63.10
56300;DHT22;42209;6.376;-10.782;2022-10-31T03:34:20;23.60;63.10
56300;DHT22;42209;6.376;-10.782;2022-10-31T03:36:52;23.70;61.50
56300;DHT22;42209;6.376;-10.782;2022-10-31T03:39:23;23.50;56.30
56300;DHT22;42209;6.376;-10.782;2022-10-31T03:42:06;23.20;54.40
56300;DHT22;42209;6.376;-10.782;2022-10-31T03:44:35;22.90;52.90
56300;DHT22;42209;6.376;-10.782;2022-10-31T03:47:07;22.70;51.70
56300;DHT22;42209;6.376;-10.782;2022-10-31T03:49:35;22.70;52.60
56300;DHT22;42209;6.376;-10.782;2022-10-31T03:52:24;22.80;56.20
56300;DHT22;42209;6.376;-10.782;2022-10-31T03:55:10;23.10;58.90
56300;DHT22;42209;6.376;-10.782;2022-10-31T04:00:40;23.30;62.00
56300;DHT22;42209;6.376;-10.782;2022-10-31T04:03:23;23.40;63.30
56300;DHT22;42209;6.376;-10.782;2022-10-31T04:05:58;23.40;63.90
56300;DHT22;42209;6.376;-10.782;2022-10-31T04:08:30;23.50;64.20
56300;DHT22;42209;6.376;-10.782;2022-10-31T04:11:00;23.60;63.60
56300;DHT22;42209;6.376;-10.782;2022-10-31T04:13:34;23.50;57.50
56300;DHT22;42209;6.376;-10.782;2022-10-31T04:16:10;23.20;55.30
56300;DHT22;42209;6.376;-10.782;2022-10-31T04:18:44;22.90;53.80
56300;DHT22;42209;6.376;-10.782;2022-10-31T04:21:12;22.80;52.60
56300;DHT22;42209;6.376;-10.782;2022-10-31T04:23:41;22.60;51.40
56300;DHT22;42209;6.376;-10.782;2022-10-31T04:26:17;22.70;54.40
56300;DHT22;42209;6.376;-10.782;2022-10-31T04:28:46;23.00;58.10
56300;DHT22;42209;6.376;-10.782;2022-10-31T04:31:14;23.10;60.00
56300;DHT22;42209;6.376;-10.782;2022-10-31T04:33:45;23.20;61.40
56300;DHT22;42209;6.376;-10.782;2022-10-31T04:36:13;23.30;62.50
56300;DHT22;42209;6.376;-10.782;2022-10-31T04:38:42;23.40;63.70
56300;DHT22;42209;6.376;-10.782;2022-10-31T04:41:23;23.40;64.20
56300;DHT22;42209;6.376;-10.782;2022-10-31T04:44:00;23.50;64.60
56300;DHT22;42209;6.376;-10.782;2022-10-31T04:46:28;23.60;64.60
56300;DHT22;42209;6.376;-10.782;2022-10-31T04:48:58;23.60;60.20
56300;DHT22;42209;6.376;-10.782;2022-10-31T04:51:26;23.30;56.70
56300;DHT22;42209;6.376;-10.782;2022-10-31T04:53:55;23.10;55.30
56300;DHT22;42209;6.376;-10.782;2022-10-31T04:56:52;22.90;53.70
56300;DHT22;42209;6.376;-10.782;2022-10-31T04:59:22;22.80;55.40
56300;DHT22;42209;6.376;-10.782;2022-10-31T05:01:52;23.00;60.00
56300;DHT22;42209;6.376;-10.782;2022-10-31T05:04:34;23.10;61.70
56300;DHT22;42209;6.376;-10.782;2022-10-31T05:07:02;23.20;63.20
56300;DHT22;42209;6.376;-10.782;2022-10-31T05:09:30;23.30;64.20
56300;DHT22;42209;6.376;-10.782;2022-10-31T05:11:58;23.40;65.10
56300;DHT22;42209;6.376;-10.782;2022-10-31T05:14:45;23.50;65.90
56300;DHT22;42209;6.376;-10.782;2022-10-31T05:17:33;23.60;66.20
56300;DHT22;42209;6.376;-10.782;2022-10-31T05:20:22;23.60;65.40
56300;DHT22;42209;6.376;-10.782;2022-10-31T05:23:13;23.50;58.70
56300;DHT22;42209;6.376;-10.782;2022-10-31T05:25:41;23.10;56.30
56300;DHT22;42209;6.376;-10.782;2022-10-31T05:28:09;22.90;55.10
56300;DHT22;42209;6.376;-10.782;2022-10-31T05:30:37;22.70;53.90
56300;DHT22;42209;6.376;-10.782;2022-10-31T05:33:10;22.70;53.10
56300;DHT22;42209;6.376;-10.782;2022-10-31T05:35:40;22.80;58.20
56300;DHT22;42209;6.376;-10.782;2022-10-31T05:38:28;23.00;60.40
56300;DHT22;42209;6.376;-10.782;2022-10-31T05:41:00;23.10;62.60
56300;DHT22;42209;6.376;-10.782;2022-10-31T05:43:30;23.20;63.60
56300;DHT22;42209;6.376;-10.782;2022-10-31T05:46:00;23.30;64.60
56300;DHT22;42209;6.376;-10.782;2022-10-31T05:48:47;23.40;65.40
56300;DHT22;42209;6.376;-10.782;2022-10-31T05:51:38;23.50;66.10
56300;DHT22;42209;6.376;-10.782;2022-10-31T05:54:07;23.60;66.20
56300;DHT22;42209;6.376;-10.782;2022-10-31T05:56:44;23.60;65.90
56300;DHT22;42209;6.376;-10.782;2022-10-31T05:59:12;23.50;59.50
56300;DHT22;42209;6.376;-10.782;2022-10-31T06:01:40;23.30;57.70
56300;DHT22;42209;6.376;-10.782;2022-10-31T06:04:24;23.00;55.90
56300;DHT22;42209;6.376;-10.782;2022-10-31T06:09:28;22.90;54.40
56300;DHT22;42209;6.376;-10.782;2022-10-31T06:11:57;23.10;57.30
56300;DHT22;42209;6.376;-10.782;2022-10-31T06:14:25;23.20;60.20
56300;DHT22;42209;6.376;-10.782;2022-10-31T06:16:55;23.20;61.90
56300;DHT22;42209;6.376;-10.782;2022-10-31T06:19:52;23.30;63.20
56300;DHT22;42209;6.376;-10.782;2022-10-31T06:22:24;23.40;64.70
56300;DHT22;42209;6.376;-10.782;2022-10-31T06:24:54;23.40;65.40
56300;DHT22;42209;6.376;-10.782;2022-10-31T06:27:42;23.50;66.10
56300;DHT22;42209;6.376;-10.782;2022-10-31T06:30:15;23.60;66.60
56300;DHT22;42209;6.376;-10.782;2022-10-31T06:32:45;23.60;66.50
56300;DHT22;42209;6.376;-10.782;2022-10-31T06:35:14;23.60;61.10
56300;DHT22;42209;6.376;-10.782;2022-10-31T06:37:42;23.40;58.50
56300;DHT22;42209;6.376;-10.782;2022-10-31T06:40:27;23.10;56.30
56300;DHT22;42209;6.376;-10.782;2022-10-31T06:43:13;22.80;55.10
56300;DHT22;42209;6.376;-10.782;2022-10-31T06:45:43;22.80;58.50
56300;DHT22;42209;6.376;-10.782;2022-10-31T06:48:34;23.00;61.70
56300;DHT22;42209;6.376;-10.782;2022-10-31T06:51:34;23.20;63.50
56300;DHT22;42209;6.376;-10.782;2022-10-31T06:54:02;23.30;64.70
56300;DHT22;42209;6.376;-10.782;2022-10-31T06:56:31;23.40;65.80
56300;DHT22;42209;6.376;-10.782;2022-10-31T06:58:59;23.50;66.70
56300;DHT22;42209;6.376;-10.782;2022-10-31T07:01:50;23.50;67.40
56300;DHT22;42209;6.376;-10.782;2022-10-31T07:04:18;23.60;67.90
56300;DHT22;42209;6.376;-10.782;2022-10-31T07:06:47;23.70;67.20
56300;DHT22;42209;6.376;-10.782;2022-10-31T07:09:19;23.50;60.70
56300;DHT22;42209;6.376;-10.782;2022-10-31T07:11:47;23.30;58.50
56300;DHT22;42209;6.376;-10.782;2022-10-31T07:14:16;23.00;56.70
56300;DHT22;42209;6.376;-10.782;2022-10-31T07:16:47;22.80;55.30
56300;DHT22;42209;6.376;-10.782;2022-10-31T07:19:17;22.80;59.10
56300;DHT22;42209;6.376;-10.782;2022-10-31T07:21:46;23.00;62.20
56300;DHT22;42209;6.376;-10.782;2022-10-31T07:24:15;23.20;64.00
56300;DHT22;42209;6.376;-10.782;2022-10-31T07:26:43;23.20;65.20
56300;DHT22;42209;6.376;-10.782;2022-10-31T07:29:11;23.30;66.20
56300;DHT22;42209;6.376;-10.782;2022-10-31T07:31:39;23.40;67.20
56300;DHT22;42209;6.376;-10.782;2022-10-31T07:34:15;23.50;68.40
56300;DHT22;42209;6.376;-10.782;2022-10-31T07:37:02;23.50;69.40
56300;DHT22;42209;6.376;-10.782;2022-10-31T07:39:30;23.60;69.00
56300;DHT22;42209;6.376;-10.782;2022-10-31T07:41:59;23.70;65.80
56300;DHT22;42209;6.376;-10.782;2022-10-31T07:44:28;23.50;60.90
56300;DHT22;42209;6.376;-10.782;2022-10-31T07:47:14;23.20;58.70
56300;DHT22;42209;6.376;-10.782;2022-10-31T07:50:03;23.00;57.20
56300;DHT22;42209;6.376;-10.782;2022-10-31T07:53:01;22.80;55.90
56300;DHT22;42209;6.376;-10.782;2022-10-31T07:57:09;22.60;52.80
56300;DHT22;42209;6.376;-10.782;2022-10-31T07:59:39;22.70;55.10
56300;DHT22;42209;6.376;-10.782;2022-10-31T08:02:07;22.90;59.10
56300;DHT22;42209;6.376;-10.782;2022-10-31T08:04:56;23.10;61.40
56300;DHT22;42209;6.376;-10.782;2022-10-31T08:07:46;23.20;63.30
56300;DHT22;42209;6.376;-10.782;2022-10-31T08:10:20;23.30;65.00
56300;DHT22;42209;6.376;-10.782;2022-10-31T08:13:01;23.30;66.10
56300;DHT22;42209;6.376;-10.782;2022-10-31T08:15:31;23.40;66.80
56300;DHT22;42209;6.376;-10.782;2022-10-31T08:18:00;23.50;67.50
56300;DHT22;42209;6.376;-10.782;2022-10-31T08:20:29;23.60;67.60
56300;DHT22;42209;6.376;-10.782;2022-10-31T08:23:03;23.60;65.80
56300;DHT22;42209;6.376;-10.782;2022-10-31T08:25:35;23.50;60.60
56300;DHT22;42209;6.376;-10.782;2022-10-31T08:28:06;23.20;58.40
56300;DHT22;42209;6.376;-10.782;2022-10-31T08:30:36;22.90;56.90
56300;DHT22;42209;6.376;-10.782;2022-10-31T08:33:23;22.70;55.70
56300;DHT22;42209;6.376;-10.782;2022-10-31T08:36:10;22.70;53.90
56300;DHT22;42209;6.376;-10.782;2022-10-31T08:38:56;22.60;52.50
56300;DHT22;42209;6.376;-10.782;2022-10-31T08:41:30;22.50;51.50
56300;DHT22;42209;6.376;-10.782;2022-10-31T08:43:59;22.50;52.30
56300;DHT22;42209;6.376;-10.782;2022-10-31T08:46:28;22.70;56.00
56300;DHT22;42209;6.376;-10.782;2022-10-31T08:48:56;22.80;58.90
56300;DHT22;42209;6.376;-10.782;2022-10-31T08:51:25;23.00;61.00
56300;DHT22;42209;6.376;-10.782;2022-10-31T08:53:55;23.10;62.40
56300;DHT22;42209;6.376;-10.782;2022-10-31T08:56:35;23.20;63.80
56300;DHT22;42209;6.376;-10.782;2022-10-31T08:59:12;23.30;65.10
56300;DHT22;42209;6.376;-10.782;2022-10-31T09:01:58;23.40;66.00
56300;DHT22;42209;6.376;-10.782;2022-10-31T09:04:28;23.40;66.40
56300;DHT22;42209;6.376;-10.782;2022-10-31T09:06:57;23.50;66.70
56300;DHT22;42209;6.376;-10.782;2022-10-31T09:09:45;23.60;64.00
56300;DHT22;42209;6.376;-10.782;2022-10-31T09:12:14;23.40;59.10
56300;DHT22;42209;6.376;-10.782;2022-10-31T09:15:10;23.10;57.70
56300;DHT22;42209;6.376;-10.782;2022-10-31T09:18:12;22.80;56.20
56300;DHT22;42209;6.376;-10.782;2022-10-31T09:21:09;22.70;54.40
56300;DHT22;42209;6.376;-10.782;2022-10-31T09:23:37;22.60;53.10
56300;DHT22;42209;6.376;-10.782;2022-10-31T09:26:06;22.60;52.10
56300;DHT22;42209;6.376;-10.782;2022-10-31T09:28:40;22.50;51.10
56300;DHT22;42209;6.376;-10.782;2022-10-31T09:31:11;22.40;50.80
56300;DHT22;42209;6.376;-10.782;2022-10-31T09:33:45;22.60;54.50
56300;DHT22;42209;6.376;-10.782;2022-10-31T09:36:33;22.80;57.80
56300;DHT22;42209;6.376;-10.782;2022-10-31T09:39:03;23.00;60.30
56300;DHT22;42209;6.376;-10.782;2022-10-31T09:44:38;23.20;63.70
56300;DHT22;42209;6.376;-10.782;2022-10-31T09:50:49;23.40;66.20
56300;DHT22;42209;6.376;-10.782;2022-10-31T09:56:31;23.60;65.40
56300;DHT22;42209;6.376;-10.782;2022-10-31T09:59:02;23.40;60.00
56300;DHT22;42209;6.376;-10.782;2022-10-31T10:04:53;23.00;57.10
56300;DHT22;42209;6.376;-10.782;2022-10-31T10:13:47;22.60;53.20
56300;DHT22;42209;6.376;-10.782;2022-10-31T10:16:54;22.50;52.10
56300;DHT22;42209;6.376;-10.782;2022-10-31T10:28:02;22.40;48.60
56300;DHT22;42209;6.376;-10.782;2022-10-31T10:33:32;22.30;47.40
56300;DHT22;42209;6.376;-10.782;2022-10-31T10:36:12;22.30;46.80
56300;DHT22;42209;6.376;-10.782;2022-10-31T10:39:02;22.20;46.30
56300;DHT22;42209;6.376;-10.782;2022-10-31T10:41:32;22.20;45.70
56300;DHT22;42209;6.376;-10.782;2022-10-31T10:44:01;22.30;47.80
56300;DHT22;42209;6.376;-10.782;2022-10-31T10:46:50;22.50;51.00
56300;DHT22;42209;6.376;-10.782;2022-10-31T10:49:50;22.70;55.20
56300;DHT22;42209;6.376;-10.782;2022-10-31T10:58:00;23.10;61.70
56300;DHT22;42209;6.376;-10.782;2022-10-31T11:00:34;23.20;62.60
56300;DHT22;42209;6.376;-10.782;2022-10-31T11:03:03;23.30;63.60
56300;DHT22;42209;6.376;-10.782;2022-10-31T11:08:35;23.50;64.30
56300;DHT22;42209;6.376;-10.782;2022-10-31T11:13:41;23.20;56.80
56300;DHT22;42209;6.376;-10.782;2022-10-31T11:16:27;23.00;55.80
56300;DHT22;42209;6.376;-10.782;2022-10-31T11:19:08;22.80;54.70
56300;DHT22;42209;6.376;-10.782;2022-10-31T11:21:38;22.70;53.40
56300;DHT22;42209;6.376;-10.782;2022-10-31T11:26:39;22.60;51.30
56300;DHT22;42209;6.376;-10.782;2022-10-31T11:29:25;22.60;50.40
56300;DHT22;42209;6.376;-10.782;2022-10-31T11:31:55;22.40;49.20
56300;DHT22;42209;6.376;-10.782;2022-10-31T11:34:31;22.50;48.70
56300;DHT22;42209;6.376;-10.782;2022-10-31T11:37:15;22.40;47.80
56300;DHT22;42209;6.376;-10.782;2022-10-31T11:39:50;22.40;47.10
56300;DHT22;42209;6.376;-10.782;2022-10-31T11:42:28;22.30;46.80
56300;DHT22;42209;6.376;-10.782;2022-10-31T11:44:58;22.30;46.20
56300;DHT22;42209;6.376;-10.782;2022-10-31T11:47:28;22.30;45.80
56300;DHT22;42209;6.376;-10.782;2022-10-31T11:49:59;22.30;48.60
56300;DHT22;42209;6.376;-10.782;2022-10-31T11:52:31;22.60;51.70
56300;DHT22;42209;6.376;-10.782;2022-10-31T11:57:49;23.00;57.80
56300;DHT22;42209;6.376;-10.782;2022-10-31T12:00:47;23.10;59.60
56300;DHT22;42209;6.376;-10.782;2022-10-31T12:06:35;23.30;62.50
56300;DHT22;42209;6.376;-10.782;2022-10-31T12:09:33;23.40;63.20
56300;DHT22;42209;6.376;-10.782;2022-10-31T12:29:03;22.60;50.30
56300;DHT22;42209;6.376;-10.782;2022-10-31T12:31:48;22.50;49.10
56300;DHT22;42209;6.376;-10.782;2022-10-31T12:40:26;22.40;46.60
56300;DHT22;42209;6.376;-10.782;2022-10-31T12:43:16;22.40;45.90
56300;DHT22;42209;6.376;-10.782;2022-10-31T12:54:11;22.30;44.30
56300;DHT22;42209;6.376;-10.782;2022-10-31T12:56:54;22.30;44.10
56300;DHT22;42209;6.376;-10.782;2022-10-31T13:00:17;22.30;44.20
56300;DHT22;42209;6.376;-10.782;2022-10-31T13:02:38;22.30;44.20
56300;DHT22;42209;6.376;-10.782;2022-10-31T13:05:30;22.40;44.10
56300;DHT22;42209;6.376;-10.782;2022-10-31T13:13:30;22.90;54.00
56300;DHT22;42209;6.376;-10.782;2022-10-31T13:16:21;23.00;56.50
56300;DHT22;42209;6.376;-10.782;2022-10-31T13:19:10;23.10;58.50
56300;DHT22;42209;6.376;-10.782;2022-10-31T13:22:03;23.30;59.90
56300;DHT22;42209;6.376;-10.782;2022-10-31T13:25:03;23.30;56.10
56300;DHT22;42209;6.376;-10.782;2022-10-31T13:30:22;22.80;52.30
56300;DHT22;42209;6.376;-10.782;2022-10-31T13:35:31;22.60;49.90
56300;DHT22;42209;6.376;-10.782;2022-10-31T13:38:14;22.50;48.90
56300;DHT22;42209;6.376;-10.782;2022-10-31T13:44:13;22.50;47.70
56300;DHT22;42209;6.376;-10.782;2022-10-31T13:46:43;22.50;47.10
56300;DHT22;42209;6.376;-10.782;2022-10-31T13:54:42;22.70;45.90
56300;DHT22;42209;6.376;-10.782;2022-10-31T13:59:58;22.80;50.10
56300;DHT22;42209;6.376;-10.782;2022-10-31T14:02:29;23.00;53.60
56300;DHT22;42209;6.376;-10.782;2022-10-31T14:05:16;23.10;56.20
56300;DHT22;42209;6.376;-10.782;2022-10-31T14:07:47;23.20;58.30
56300;DHT22;42209;6.376;-10.782;2022-10-31T14:10:49;23.40;58.50
56300;DHT22;42209;6.376;-10.782;2022-10-31T14:13:36;23.20;53.20
56300;DHT22;42209;6.376;-10.782;2022-10-31T14:16:23;23.10;51.90
56300;DHT22;42209;6.376;-10.782;2022-10-31T14:19:19;23.10;57.00
56300;DHT22;42209;6.376;-10.782;2022-10-31T14:21:49;23.30;60.60
56300;DHT22;42209;6.376;-10.782;2022-10-31T14:26:57;23.50;62.20
56300;DHT22;42209;6.376;-10.782;2022-10-31T14:29:33;23.50;56.20
56300;DHT22;42209;6.376;-10.782;2022-10-31T14:32:06;23.20;54.20
56300;DHT22;42209;6.376;-10.782;2022-10-31T14:34:57;23.00;53.00
56300;DHT22;42209;6.376;-10.782;2022-10-31T14:45:54;22.70;48.40
56300;DHT22;42209;6.376;-10.782;2022-10-31T14:48:57;22.70;47.40
56300;DHT22;42209;6.376;-10.782;2022-10-31T14:51:40;22.70;46.50
56300;DHT22;42209;6.376;-10.782;2022-10-31T14:54:38;22.70;46.10
56300;DHT22;42209;6.376;-10.782;2022-10-31T14:57:15;22.70;45.30
56300;DHT22;42209;6.376;-10.782;2022-10-31T14:59:52;22.80;45.10
56300;DHT22;42209;6.376;-10.782;2022-10-31T15:02:41;22.90;44.70
56300;DHT22;42209;6.376;-10.782;2022-10-31T15:05:13;23.00;44.50
56300;DHT22;42209;6.376;-10.782;2022-10-31T15:07:54;23.10;47.10
56300;DHT22;42209;6.376;-10.782;2022-10-31T15:10:26;23.20;51.50
56300;DHT22;42209;6.376;-10.782;2022-10-31T15:12:55;23.20;48.70
56300;DHT22;42209;6.376;-10.782;2022-10-31T15:15:26;23.10;47.80
56300;DHT22;42209;6.376;-10.782;2022-10-31T15:17:59;23.00;48.80
56300;DHT22;42209;6.376;-10.782;2022-10-31T15:20:38;23.20;52.90
56300;DHT22;42209;6.376;-10.782;2022-10-31T15:23:16;23.30;55.80
56300;DHT22;42209;6.376;-10.782;2022-10-31T15:25:44;23.30;51.20
56300;DHT22;42209;6.376;-10.782;2022-10-31T15:28:16;23.20;49.10
56300;DHT22;42209;6.376;-10.782;2022-10-31T15:30:52;23.00;47.90
56300;DHT22;42209;6.376;-10.782;2022-10-31T15:33:27;22.90;47.30
56300;DHT22;42209;6.376;-10.782;2022-10-31T15:36:04;22.80;46.60
56300;DHT22;42209;6.376;-10.782;2022-10-31T15:38:33;22.70;46.20
56300;DHT22;42209;6.376;-10.782;2022-10-31T15:41:04;22.80;46.70
56300;DHT22;42209;6.376;-10.782;2022-10-31T15:43:36;22.80;46.30
56300;DHT22;42209;6.376;-10.782;2022-10-31T15:46:08;22.90;45.50
56300;DHT22;42209;6.376;-10.782;2022-10-31T15:48:37;23.00;45.10
56300;DHT22;42209;6.376;-10.782;2022-10-31T15:51:06;23.10;47.10
56300;DHT22;42209;6.376;-10.782;2022-10-31T15:53:45;23.20;51.40
56300;DHT22;42209;6.376;-10.782;2022-10-31T15:56:25;23.30;53.80
56300;DHT22;42209;6.376;-10.782;2022-10-31T16:03:30;23.50;50.70
56300;DHT22;42209;6.376;-10.782;2022-10-31T16:06:01;23.60;52.60
56300;DHT22;42209;6.376;-10.782;2022-10-31T16:10:01;23.60;49.70
56300;DHT22;42209;6.376;-10.782;2022-10-31T16:12:44;23.50;53.70
56300;DHT22;42209;6.376;-10.782;2022-10-31T16:15:15;23.50;52.70
56300;DHT22;42209;6.376;-10.782;2022-10-31T16:17:48;23.30;50.30
56300;DHT22;42209;6.376;-10.782;2022-10-31T16:20:26;23.10;49.10
56300;DHT22;42209;6.376;-10.782;2022-10-31T16:22:55;23.00;48.30
56300;DHT22;42209;6.376;-10.782;2022-10-31T16:25:35;22.90;47.60
56300;DHT22;42209;6.376;-10.782;2022-10-31T16:28:13;22.90;47.00
56300;DHT22;42209;6.376;-10.782;2022-10-31T16:30:44;23.00;46.50
56300;DHT22;42209;6.376;-10.782;2022-10-31T16:33:25;23.00;45.70
56300;DHT22;42209;6.376;-10.782;2022-10-31T16:35:55;23.10;45.20
56300;DHT22;42209;6.376;-10.782;2022-10-31T16:38:42;23.20;45.70
56300;DHT22;42209;6.376;-10.782;2022-10-31T16:41:10;23.30;51.00
56300;DHT22;42209;6.376;-10.782;2022-10-31T16:43:38;23.40;54.00
56300;DHT22;42209;6.376;-10.782;2022-10-31T16:46:14;23.50;56.20
56300;DHT22;42209;6.376;-10.782;2022-10-31T16:48:43;23.50;51.80
56300;DHT22;42209;6.376;-10.782;2022-10-31T16:51:11;23.30;49.60
56300;DHT22;42209;6.376;-10.782;2022-10-31T16:53:39;23.20;51.30
56300;DHT22;42209;6.376;-10.782;2022-10-31T16:56:20;23.30;55.60
56300;DHT22;42209;6.376;-10.782;2022-10-31T16:58:50;23.50;58.50
56300;DHT22;42209;6.376;-10.782;2022-10-31T17:01:18;23.60;56.50
56300;DHT22;42209;6.376;-10.782;2022-10-31T17:03:47;23.40;52.30
56300;DHT22;42209;6.376;-10.782;2022-10-31T17:06:15;23.20;50.50
56300;DHT22;42209;6.376;-10.782;2022-10-31T17:08:43;23.00;49.70
56300;DHT22;42209;6.376;-10.782;2022-10-31T17:11:24;23.00;48.50
56300;DHT22;42209;6.376;-10.782;2022-10-31T17:13:53;22.90;48.00
56300;DHT22;42209;6.376;-10.782;2022-10-31T17:16:22;22.90;47.40
56300;DHT22;42209;6.376;-10.782;2022-10-31T17:18:50;23.00;46.60
56300;DHT22;42209;6.376;-10.782;2022-10-31T17:21:21;23.10;45.90
56300;DHT22;42209;6.376;-10.782;2022-10-31T17:23:50;23.10;45.20
56300;DHT22;42209;6.376;-10.782;2022-10-31T17:26:19;23.10;47.10
56300;DHT22;42209;6.376;-10.782;2022-10-31T17:28:47;23.30;50.80
56300;DHT22;42209;6.376;-10.782;2022-10-31T17:31:25;23.40;53.40
56300;DHT22;42209;6.376;-10.782;2022-10-31T17:33:55;23.50;54.50
56300;DHT22;42209;6.376;-10.782;2022-10-31T17:36:31;23.40;49.90
56300;DHT22;42209;6.376;-10.782;2022-10-31T17:38:59;23.20;48.30
56300;DHT22;42209;6.376;-10.782;2022-10-31T17:41:27;23.20;51.50
56300;DHT22;42209;6.376;-10.782;2022-10-31T17:43:56;23.30;54.90
56300;DHT22;42209;6.376;-10.782;2022-10-31T17:46:25;23.50;57.10
56300;DHT22;42209;6.376;-10.782;2022-10-31T17:48:53;23.60;55.10
56300;DHT22;42209;6.376;-10.782;2022-10-31T17:51:21;23.40;51.10
56300;DHT22;42209;6.376;-10.782;2022-10-31T17:53:49;23.20;49.60
56300;DHT22;42209;6.376;-10.782;2022-10-31T17:56:17;23.00;48.60
56300;DHT22;42209;6.376;-10.782;2022-10-31T17:58:46;23.00;47.70
56300;DHT22;42209;6.376;-10.782;2022-10-31T18:01:16;22.80;46.80
56300;DHT22;42209;6.376;-10.782;2022-10-31T18:03:44;22.80;46.20
56300;DHT22;42209;6.376;-10.782;2022-10-31T18:06:12;22.80;45.40
56300;DHT22;42209;6.376;-10.782;2022-10-31T18:08:42;22.90;45.00
56300;DHT22;42209;6.376;-10.782;2022-10-31T18:11:19;23.00;44.40
56300;DHT22;42209;6.376;-10.782;2022-10-31T18:13:52;23.00;43.80
56300;DHT22;42209;6.376;-10.782;2022-10-31T18:16:21;23.10;44.70
56300;DHT22;42209;6.376;-10.782;2022-10-31T18:18:56;23.20;48.20
56300;DHT22;42209;6.376;-10.782;2022-10-31T18:21:25;23.30;51.80
56300;DHT22;42209;6.376;-10.782;2022-10-31T18:23:57;23.40;54.00
56300;DHT22;42209;6.376;-10.782;2022-10-31T18:26:27;23.50;55.80
56300;DHT22;42209;6.376;-10.782;2022-10-31T18:28:55;23.40;49.70
56300;DHT22;42209;6.376;-10.782;2022-10-31T18:31:23;23.20;48.20
56300;DHT22;42209;6.376;-10.782;2022-10-31T18:33:53;23.20;50.70
56300;DHT22;42209;6.376;-10.782;2022-10-31T18:36:22;23.30;54.50
56300;DHT22;42209;6.376;-10.782;2022-10-31T18:38:51;23.50;56.60
56300;DHT22;42209;6.376;-10.782;2022-10-31T18:41:19;23.60;58.00
56300;DHT22;42209;6.376;-10.782;2022-10-31T18:43:47;23.70;59.00